Terminal Aerodrome Forecast
Issued by NWS

Home | Current Version | Previous Version | Text Only | Print | Product List | Glossary On
Versions: 1 2 3 4 5 6 7 8 9 10 11 12 13 14 15 16 17 18 19 20 21
000
FTUS41 KBOX 222338
TAFFMH
TAF
KFMH 222338Z 2300/2324 04024G38KT 3SM -RA BR OVC003
     FM230500 05014KT 2SM +RA BR OVC003
     FM231000 05008KT 2SM RA BR OVC003
     FM231100 05006KT 2SM -RA BR OVC003
     FM231500 06009KT 3SM -SHRA BR OVC010
     FM231800 03010G20KT 3SM -SHRA OVC008
     FM232100 01009KT 3SM -SHRA OVC010=

USA.gov is the U.S. government's official web portal to all federal, state and local government web resources and services.